Paynes Point, Illinois
Current Conditions -  °F | °C
As of 11:55 PM on Thursday 27 Nov 2014 (Local Time) from KRPJ Reporting Station
Broken Clouds Broken Clouds  
Wind Chill:   Ceiling: 11000
Heat Index: 11°   Visibility: 10mi
Dew Point:   Wind: 5mph
Humidity: 84%   Direction: 200°SSW
Pressure: 30.37"   Gusts: NA
Location:  41.9937°N, 89.1961°W
Report Text: KRPJ 280555Z AUTO 20004KT 10SM BKN110 M11/M14 A3037 RMK AO2 T11151137 11093 21150 410411150
Loading
Personal Weather Stations






























Interactive Weather Map New forecast layout! Learn more

10-Day Weather Forecast

Advertisements
Track Severe Weather on mobile